createdAt,value
2023-04-15T00:01:19.265Z,100067.66
2023-04-15T00:03:47.887Z,100089.25
2023-04-15T00:06:16.072Z,100040.06
2023-04-15T00:08:43.798Z,100098.94
2023-04-15T00:11:12.884Z,100116.28
2023-04-15T00:13:41.005Z,100118.22
2023-04-15T00:16:09.035Z,100097.81
2023-04-15T00:18:38.861Z,100080.97
2023-04-15T00:21:06.774Z,100109.25
2023-04-15T00:23:34.586Z,100088.22
2023-04-15T00:26:02.961Z,100081.97
2023-04-15T00:28:31.392Z,100022.09
2023-04-15T00:30:59.586Z,100094.19
2023-04-15T00:33:27.886Z,100073.00
2023-04-15T00:35:56.540Z,100113.03
2023-04-15T00:38:24.339Z,100107.41
2023-04-15T00:40:53.487Z,100075.31
2023-04-15T00:43:21.201Z,100115.69
2023-04-15T00:45:48.954Z,100118.50
2023-04-15T00:48:17.808Z,100117.91
2023-04-15T00:50:48.553Z,100092.66
2023-04-15T00:53:16.358Z,100074.44
2023-04-15T00:55:44.187Z,100117.00
2023-04-15T00:58:12.178Z,100034.63
2023-04-15T01:00:41.141Z,100061.00
2023-04-15T01:03:09.328Z,100112.69
2023-04-15T01:05:37.425Z,100108.84
2023-04-15T01:08:05.957Z,100119.31
2023-04-15T01:10:33.850Z,100114.16
2023-04-15T01:13:03.483Z,100116.88
2023-04-15T01:15:31.650Z,100103.16
2023-04-15T01:17:59.994Z,100104.56
2023-04-15T01:20:29.517Z,100118.31
2023-04-15T01:22:57.351Z,100113.97
2023-04-15T01:25:35.186Z,100095.50
2023-04-15T01:28:03.560Z,100101.94
2023-04-15T01:30:36.167Z,100091.84
2023-04-15T01:33:05.057Z,100102.34
2023-04-15T01:35:51.815Z,100075.94
2023-04-15T01:38:19.770Z,100099.56
2023-04-15T01:40:48.270Z,100100.34
2023-04-15T01:43:17.796Z,100094.09
2023-04-15T01:45:47.134Z,100100.34
2023-04-15T01:48:17.067Z,100033.09
2023-04-15T01:50:46.583Z,100052.34
2023-04-15T01:53:17.090Z,100069.00
2023-04-15T01:55:46.096Z,100108.84
2023-04-15T01:58:17.382Z,100077.84
2023-04-15T02:00:46.690Z,100070.91
2023-04-15T02:03:15.687Z,100107.59
2023-04-15T02:05:44.697Z,100089.75
2023-04-15T02:08:13.797Z,100062.91
2023-04-15T02:10:42.888Z,100106.81
2023-04-15T02:13:11.885Z,100120.41
2023-04-15T02:15:41.190Z,100127.16
2023-04-15T02:18:10.362Z,100121.72
2023-04-15T02:20:39.870Z,100032.38
2023-04-15T02:23:08.938Z,100096.91
2023-04-15T02:25:39.154Z,100098.00
2023-04-15T02:28:08.185Z,100078.84
2023-04-15T02:30:37.564Z,100084.22
2023-04-15T02:33:07.477Z,100097.72
2023-04-15T02:35:39.497Z,100076.75
2023-04-15T02:38:09.015Z,100068.88
2023-04-15T02:40:38.373Z,100104.16
2023-04-15T02:43:09.251Z,100109.00
2023-04-15T02:45:38.406Z,100054.97
2023-04-15T02:48:08.231Z,100077.75
2023-04-15T02:50:41.632Z,100057.69
2023-04-15T02:53:13.482Z,100081.78
2023-04-15T02:55:43.168Z,100071.50
2023-04-15T02:58:12.564Z,100106.59
2023-04-15T03:00:44.115Z,100078.34
2023-04-15T03:03:15.411Z,100076.25
2023-04-15T03:05:45.280Z,100082.19
2023-04-15T03:08:15.146Z,100037.00
2023-04-15T03:10:44.148Z,100091.34
2023-04-15T03:13:13.501Z,100099.94
2023-04-15T03:15:42.649Z,100080.38
2023-04-15T03:18:12.212Z,100060.81
2023-04-15T03:20:43.100Z,100021.50
2023-04-15T03:23:12.648Z,100055.38
2023-04-15T03:25:42.580Z,100105.28
2023-04-15T03:28:11.624Z,100100.53
2023-04-15T03:30:40.718Z,100102.16
2023-04-15T03:33:09.857Z,100106.78
2023-04-15T03:35:39.835Z,100099.09
2023-04-15T03:38:09.334Z,100112.53
2023-04-15T03:40:41.252Z,100113.66
2023-04-15T03:43:10.247Z,100067.97
2023-04-15T03:45:39.602Z,100104.56
2023-04-15T03:48:17.201Z,100067.56
2023-04-15T03:50:47.343Z,100126.56
2023-04-15T03:53:16.834Z,100125.75
2023-04-15T03:55:45.937Z,100119.28
2023-04-15T03:58:15.107Z,100116.06
2023-04-15T04:00:44.094Z,100102.97
2023-04-15T04:03:13.179Z,100120.50
2023-04-15T04:05:42.724Z,100081.78
2023-04-15T04:08:14.101Z,100096.19
2023-04-15T04:10:43.427Z,100109.63
2023-04-15T04:13:12.548Z,100118.88
2023-04-15T04:15:41.767Z,100104.25
2023-04-15T04:18:10.737Z,99945.19
2023-04-15T04:20:39.921Z,100111.41
2023-04-15T04:23:08.911Z,100119.28
2023-04-15T04:25:38.031Z,100093.97
2023-04-15T04:28:06.971Z,100100.13
2023-04-15T04:30:36.514Z,100080.25
2023-04-15T04:33:05.792Z,100084.50
2023-04-15T04:35:37.906Z,100060.38
2023-04-15T04:38:06.853Z,100091.63
2023-04-15T04:40:35.932Z,100077.09
2023-04-15T04:43:06.671Z,100071.09
2023-04-15T04:45:36.969Z,100103.13
2023-04-15T04:48:07.322Z,100086.56
2023-04-15T04:50:37.139Z,100106.44
2023-04-15T04:53:06.331Z,100077.94
2023-04-15T04:55:37.305Z,100125.31
2023-04-15T04:58:06.631Z,100129.63
2023-04-15T05:00:35.518Z,100105.50
2023-04-15T05:03:05.077Z,100130.44
2023-04-15T05:05:36.025Z,100101.97
2023-04-15T05:08:08.346Z,100127.50
2023-04-15T05:10:37.436Z,100112.97
2023-04-15T05:13:06.560Z,100141.41
2023-04-15T05:15:37.219Z,100156.16
2023-04-15T05:18:06.800Z,100163.53
2023-04-15T05:20:36.001Z,100117.41
2023-04-15T05:23:05.057Z,100129.91
2023-04-15T05:25:34.312Z,100117.00
2023-04-15T05:28:03.343Z,100164.81
2023-04-15T05:30:32.441Z,100074.69
2023-04-15T05:33:02.021Z,100130.91
2023-04-15T05:35:31.357Z,100123.13
2023-04-15T05:38:00.795Z,100149.56
2023-04-15T05:40:30.978Z,100182.03
2023-04-15T05:42:59.923Z,100173.69
2023-04-15T05:45:28.892Z,100167.59
2023-04-15T05:47:57.932Z,100182.34
2023-04-15T05:50:27.369Z,100177.41
2023-04-15T05:52:56.874Z,100173.19
2023-04-15T05:55:25.965Z,100184.38
2023-04-15T05:57:54.835Z,100176.31
2023-04-15T06:00:23.930Z,100136.22
2023-04-15T06:02:53.383Z,100170.31
2023-04-15T06:05:22.426Z,100163.56
2023-04-15T06:07:51.535Z,100172.75
2023-04-15T06:10:20.717Z,100129.47
2023-04-15T06:12:49.724Z,100119.75
2023-04-15T06:15:18.966Z,100166.50
2023-04-15T06:17:48.539Z,100135.53
2023-04-15T06:20:17.768Z,100069.53
2023-04-15T06:22:47.082Z,100184.72
2023-04-15T06:25:16.124Z,100161.22
2023-04-15T06:27:48.193Z,100187.06
2023-04-15T06:30:17.368Z,100200.13
2023-04-15T06:32:46.540Z,100182.56
2023-04-15T06:35:16.192Z,100191.78
2023-04-15T06:37:46.820Z,100134.53
2023-04-15T06:40:15.858Z,100186.91
2023-04-15T06:42:44.760Z,100164.41
2023-04-15T06:45:14.677Z,100152.97
2023-04-15T06:47:43.860Z,100195.25
2023-04-15T06:50:12.860Z,100197.41
2023-04-15T06:52:42.501Z,100199.72
2023-04-15T06:55:11.644Z,100201.34
2023-04-15T06:57:40.903Z,100196.28
2023-04-15T07:00:12.227Z,100200.41
2023-04-15T07:02:41.978Z,100161.25
2023-04-15T07:05:13.055Z,100142.41
2023-04-15T07:07:42.463Z,100222.94
2023-04-15T07:10:12.254Z,100211.03
2023-04-15T07:12:41.684Z,100192.47
2023-04-15T07:15:11.414Z,100187.44
2023-04-15T07:17:43.586Z,100221.44
2023-04-15T07:20:13.271Z,100205.81
2023-04-15T07:22:45.575Z,100159.56
2023-04-15T07:25:14.559Z,100222.56
2023-04-15T07:27:44.045Z,100172.59
2023-04-15T07:30:13.427Z,100144.44
2023-04-15T07:32:43.084Z,100186.78
2023-04-15T07:35:12.527Z,100166.75
2023-04-15T07:37:43.450Z,100207.91
2023-04-15T07:40:13.135Z,100234.88
2023-04-15T07:42:42.584Z,100202.16
2023-04-15T07:45:13.451Z,100245.56
2023-04-15T07:47:43.050Z,100248.28
2023-04-15T07:50:12.280Z,100259.31
2023-04-15T07:52:41.612Z,100250.91
2023-04-15T07:55:11.097Z,100262.59
2023-04-15T07:57:42.610Z,100225.97
2023-04-15T08:00:12.204Z,100222.13
2023-04-15T08:02:44.076Z,100238.78
2023-04-15T08:05:14.355Z,100244.13
2023-04-15T08:07:43.471Z,100257.16
2023-04-15T08:10:12.717Z,100209.38
2023-04-15T08:12:41.753Z,100265.13
2023-04-15T08:15:11.242Z,100244.75
2023-04-15T08:17:40.728Z,100246.66
2023-04-15T08:20:13.685Z,100222.63
2023-04-15T08:22:43.081Z,100261.34
2023-04-15T08:25:12.371Z,100274.66
2023-04-15T08:27:41.681Z,100223.66
2023-04-15T08:30:11.054Z,100199.63
2023-04-15T08:32:40.891Z,100255.16
2023-04-15T08:35:10.868Z,100255.97
2023-04-15T08:37:40.119Z,100221.34
2023-04-15T08:40:10.035Z,100251.03
2023-04-15T08:42:44.992Z,100261.16
2023-04-15T08:45:14.995Z,100232.56
2023-04-15T08:47:46.667Z,100212.09
2023-04-15T08:50:17.656Z,100226.63
2023-04-15T08:52:47.162Z,100256.22
2023-04-15T08:55:18.087Z,100266.41
2023-04-15T08:57:47.086Z,100234.31
2023-04-15T09:00:17.367Z,100252.28
2023-04-15T09:02:47.011Z,100231.69
2023-04-15T09:05:16.830Z,100268.75
2023-04-15T09:07:45.898Z,100235.53
2023-04-15T09:10:15.018Z,100224.13
2023-04-15T09:12:44.506Z,100237.38
2023-04-15T09:15:13.922Z,100186.66
2023-04-15T09:17:46.916Z,100244.31
2023-04-15T09:20:18.788Z,100192.03
2023-04-15T09:22:49.952Z,100243.19
2023-04-15T09:25:22.328Z,100243.59
2023-04-15T09:27:53.714Z,100208.56
2023-04-15T09:30:23.824Z,100226.22
2023-04-15T09:33:02.495Z,100193.84
2023-04-15T09:35:31.855Z,100220.38
2023-04-15T09:38:09.962Z,100220.06
2023-04-15T09:40:45.353Z,100215.94
2023-04-15T09:43:14.662Z,100218.84
2023-04-15T09:45:51.279Z,100218.34
2023-04-15T09:48:28.991Z,100227.81
2023-04-15T09:50:59.007Z,100229.97
2023-04-15T09:53:31.185Z,100188.88
2023-04-15T09:56:02.839Z,100222.75
2023-04-15T09:58:39.020Z,100232.06
2023-04-15T10:01:10.298Z,100214.31
2023-04-15T10:03:42.543Z,100191.81
2023-04-15T10:06:12.615Z,100204.09
2023-04-15T10:08:42.241Z,100209.53
2023-04-15T10:11:12.860Z,100216.13
2023-04-15T10:13:41.964Z,100205.28
2023-04-15T10:16:12.899Z,100190.28
2023-04-15T10:18:45.562Z,100211.38
2023-04-15T10:21:18.634Z,100205.59
2023-04-15T10:23:49.361Z,100202.06
2023-04-15T10:26:18.602Z,100207.00
2023-04-15T10:28:48.562Z,100178.25
2023-04-15T10:31:18.834Z,100176.56
2023-04-15T10:33:49.841Z,100209.88
2023-04-15T10:36:20.397Z,100211.47
2023-04-15T10:38:49.658Z,100192.00
2023-04-15T10:41:21.273Z,100210.47
2023-04-15T10:44:01.669Z,100190.22
2023-04-15T10:46:41.752Z,100231.03
2023-04-15T10:49:13.532Z,100226.72
2023-04-15T10:51:47.549Z,100194.94
2023-04-15T10:54:18.050Z,100224.19
2023-04-15T10:56:52.751Z,100208.66
2023-04-15T10:59:22.479Z,100161.97
2023-04-15T11:01:57.120Z,100229.34
2023-04-15T11:04:58.944Z,100214.91
2023-04-15T11:07:39.099Z,100191.00
2023-04-15T11:10:14.271Z,100213.59
2023-04-15T11:12:44.441Z,100207.22
2023-04-15T11:15:36.035Z,100216.31
2023-04-15T11:18:17.186Z,100179.00
2023-04-15T11:20:48.310Z,100171.13
2023-04-15T11:23:29.036Z,100200.88
2023-04-15T11:26:00.199Z,100168.91
2023-04-15T11:28:31.300Z,100193.00
2023-04-15T11:31:11.224Z,100203.69
2023-04-15T11:33:59.415Z,100196.50
2023-04-15T11:36:31.999Z,100198.34
2023-04-15T11:39:01.226Z,100181.47
2023-04-15T11:41:33.327Z,100136.16
2023-04-15T11:44:02.635Z,100181.44
2023-04-15T11:46:32.557Z,100155.38
2023-04-15T11:49:02.766Z,100166.69
2023-04-15T11:51:37.020Z,100181.28
2023-04-15T11:54:05.114Z,100124.44
2023-04-15T11:56:33.189Z,100158.19
2023-04-15T11:59:00.979Z,100131.59
2023-04-15T12:01:36.692Z,100167.72
2023-04-15T12:04:15.984Z,100090.16
2023-04-15T12:06:44.205Z,100138.03
2023-04-15T12:09:20.468Z,100107.09
2023-04-15T12:11:53.910Z,100163.66
2023-04-15T12:14:25.804Z,100160.72
2023-04-15T12:16:58.677Z,100169.09
2023-04-15T12:19:32.756Z,100115.09
2023-04-15T12:22:03.571Z,100169.66
2023-04-15T12:24:33.330Z,100169.00
2023-04-15T12:27:06.834Z,100169.53
2023-04-15T12:32:10.490Z,100159.09
2023-04-15T12:34:41.566Z,100096.56
2023-04-15T12:37:12.372Z,100153.16
2023-04-15T12:39:42.976Z,100103.78
2023-04-15T12:42:14.452Z,100141.00
2023-04-15T12:44:42.580Z,100166.00
2023-04-15T12:47:12.249Z,100161.78
2023-04-15T12:49:40.252Z,100160.66
2023-04-15T12:52:08.010Z,100142.75
2023-04-15T12:54:36.576Z,100178.53
2023-04-15T12:57:06.911Z,100150.13
2023-04-15T12:59:36.314Z,100178.94
2023-04-15T13:02:04.468Z,100170.28
2023-04-15T13:04:32.375Z,100169.66
2023-04-15T13:07:00.520Z,100153.69
2023-04-15T13:09:29.383Z,100125.63
2023-04-15T13:11:57.725Z,100165.41
2023-04-15T13:14:25.481Z,100139.84
2023-04-15T13:16:54.102Z,100137.28
2023-04-15T13:19:22.132Z,100164.19
2023-04-15T13:21:50.906Z,100158.72
2023-04-15T13:24:18.650Z,100143.22
2023-04-15T13:26:47.613Z,100153.69
2023-04-15T13:29:16.337Z,100155.50
2023-04-15T13:31:44.168Z,100135.56
2023-04-15T13:34:12.021Z,100130.25
2023-04-15T13:36:39.841Z,100114.59
2023-04-15T13:39:07.503Z,100117.63
2023-04-15T13:41:35.212Z,100142.25
2023-04-15T13:44:03.383Z,100144.34
2023-04-15T13:46:31.371Z,100150.50
2023-04-15T13:48:59.311Z,100085.91
2023-04-15T13:51:27.444Z,100158.25
2023-04-15T13:53:55.335Z,100169.28
2023-04-15T13:56:23.110Z,100084.50
2023-04-15T13:58:53.139Z,100154.59
2023-04-15T14:01:21.378Z,100160.06
2023-04-15T14:03:49.485Z,100163.97
2023-04-15T14:06:17.635Z,100123.16
2023-04-15T14:08:45.534Z,100166.31
2023-04-15T14:11:13.336Z,100149.06
2023-04-15T14:13:41.302Z,100173.88
2023-04-15T14:16:10.916Z,100173.81
2023-04-15T14:18:40.546Z,100148.00
2023-04-15T14:21:08.477Z,100131.59
2023-04-15T14:23:36.159Z,100124.28
2023-04-15T14:26:04.152Z,100161.28
2023-04-15T14:28:32.355Z,100128.72
2023-04-15T14:31:00.322Z,100178.41
2023-04-15T14:33:28.142Z,100162.94
2023-04-15T14:35:56.370Z,100096.84
2023-04-15T14:38:24.163Z,100154.88
2023-04-15T14:40:51.959Z,100182.84
2023-04-15T14:43:19.626Z,100161.09
2023-04-15T14:45:48.486Z,100171.56
2023-04-15T14:48:16.389Z,100192.53
2023-04-15T14:50:44.148Z,100198.44
2023-04-15T14:53:11.965Z,100181.28
2023-04-15T14:55:39.793Z,100190.06
2023-04-15T14:58:09.484Z,100190.19
2023-04-15T15:00:40.649Z,100187.13
2023-04-15T15:03:13.864Z,100200.03
2023-04-15T15:05:43.390Z,100223.78
2023-04-15T15:08:11.586Z,100200.03
2023-04-15T15:10:49.010Z,100172.25
2023-04-15T15:13:19.318Z,100171.44
2023-04-15T15:15:49.877Z,100217.03
2023-04-15T15:18:19.519Z,100163.50
2023-04-15T15:20:48.284Z,100215.66
2023-04-15T15:23:16.078Z,100218.25
2023-04-15T15:25:44.372Z,100124.69
2023-04-15T15:28:12.599Z,100180.75
2023-04-15T15:30:40.617Z,100235.84
2023-04-15T15:33:09.843Z,100209.94
2023-04-15T15:35:39.720Z,100213.25
2023-04-15T15:38:07.790Z,100218.50
2023-04-15T15:40:35.893Z,100160.22
2023-04-15T15:43:04.547Z,100222.34
2023-04-15T15:45:32.622Z,100191.56
2023-04-15T15:48:02.168Z,100223.69
2023-04-15T15:50:30.232Z,100234.50
2023-04-15T15:52:59.032Z,100251.75
2023-04-15T15:55:27.477Z,100258.22
2023-04-15T15:57:55.320Z,100226.59
2023-04-15T16:00:23.406Z,100266.41
2023-04-15T16:03:06.031Z,100222.50
2023-04-15T16:05:36.373Z,100221.72
2023-04-15T16:08:04.511Z,100235.13
2023-04-15T16:10:32.419Z,100268.44
2023-04-15T16:13:00.228Z,100205.75
2023-04-15T16:15:28.040Z,100273.41
2023-04-15T16:17:55.872Z,100244.91
2023-04-15T16:20:30.086Z,100254.59
2023-04-15T16:22:59.038Z,100277.72
2023-04-15T16:25:26.837Z,100258.44
2023-04-15T16:28:05.528Z,100246.03
2023-04-15T16:30:37.739Z,100286.22
2023-04-15T16:33:06.598Z,100287.59
2023-04-15T16:35:34.862Z,100279.63
2023-04-15T16:38:03.130Z,100248.03
2023-04-15T16:40:31.216Z,100276.91
2023-04-15T16:42:59.205Z,100259.16
2023-04-15T16:45:27.032Z,100256.44
2023-04-15T16:47:54.971Z,100284.19
2023-04-15T16:50:22.910Z,100293.38
2023-04-15T16:52:50.838Z,100290.44
2023-04-15T16:55:18.618Z,100312.03
2023-04-15T16:58:00.744Z,100303.59
2023-04-15T17:00:31.686Z,100316.69
2023-04-15T17:03:01.200Z,100303.28
2023-04-15T17:05:31.360Z,100329.22
2023-04-15T17:07:59.451Z,100318.31
2023-04-15T17:10:27.531Z,100306.00
2023-04-15T17:12:59.247Z,100251.28
2023-04-15T17:15:27.818Z,100261.38
2023-04-15T17:18:11.240Z,100288.81
2023-04-15T17:20:40.187Z,100335.28
2023-04-15T17:23:08.156Z,100287.44
2023-04-15T17:25:35.945Z,100298.63
2023-04-15T17:28:05.695Z,100294.97
2023-04-15T17:30:34.690Z,100331.84
2023-04-15T17:34:00.629Z,100330.84
2023-04-15T17:36:29.754Z,100337.72
2023-04-15T17:39:17.372Z,100335.00
2023-04-15T17:41:44.941Z,100301.03
2023-04-15T17:44:32.519Z,100337.19
2023-04-15T17:47:20.902Z,100322.06
2023-04-15T17:50:09.157Z,100336.38
2023-04-15T17:52:57.840Z,100298.53
2023-04-15T17:55:46.510Z,100343.34
2023-04-15T17:58:34.149Z,100324.66
2023-04-15T18:01:22.503Z,100306.97
2023-04-15T18:04:10.516Z,100341.16
2023-04-15T18:06:58.503Z,100354.66
2023-04-15T18:09:46.386Z,100314.97
2023-04-15T18:12:35.113Z,100343.75
2023-04-15T18:15:23.403Z,100345.06
2023-04-15T18:18:11.363Z,100283.16
2023-04-15T18:20:38.967Z,100326.50
2023-04-15T18:23:06.761Z,100322.84
2023-04-15T18:25:34.590Z,100348.22
2023-04-15T18:28:02.553Z,100313.94
2023-04-15T18:30:30.385Z,100339.63
2023-04-15T18:32:59.232Z,100343.16
2023-04-15T18:35:29.869Z,100342.13
2023-04-15T18:37:58.901Z,100369.22
2023-04-15T18:40:27.072Z,100330.19
2023-04-15T18:42:55.649Z,100367.88
2023-04-15T18:45:23.639Z,100377.38
2023-04-15T18:47:52.820Z,100367.69
2023-04-15T18:50:23.619Z,100387.97
2023-04-15T18:52:51.383Z,100395.13
2023-04-15T18:55:19.363Z,100386.03
2023-04-15T18:57:48.626Z,100353.78
2023-04-15T19:00:17.368Z,100414.19
2023-04-15T19:02:45.230Z,100368.72
2023-04-15T19:05:13.099Z,100409.38
2023-04-15T19:07:41.432Z,100364.06
2023-04-15T19:10:09.512Z,100382.19
2023-04-15T19:12:37.251Z,100428.44
2023-04-15T19:15:06.723Z,100423.31
2023-04-15T19:17:34.501Z,100434.41
2023-04-15T19:20:02.362Z,100426.91
2023-04-15T19:22:31.001Z,100448.94
2023-04-15T19:24:59.147Z,100460.84
2023-04-15T19:27:27.437Z,100424.94
2023-04-15T19:29:55.478Z,100427.66
2023-04-15T19:32:23.878Z,100416.06
2023-04-15T19:34:51.688Z,100478.31
2023-04-15T19:37:19.475Z,100430.78
2023-04-15T19:39:47.531Z,100423.00
2023-04-15T19:42:18.340Z,100469.84
2023-04-15T19:44:46.257Z,100402.19
2023-04-15T19:47:14.210Z,100466.81
2023-04-15T19:49:42.461Z,100473.59
2023-04-15T19:52:10.630Z,100475.09
2023-04-15T19:54:38.476Z,100443.44
2023-04-15T19:57:06.950Z,100488.34
2023-04-15T19:59:34.915Z,100502.38
2023-04-15T20:02:03.003Z,100508.34
2023-04-15T20:04:31.438Z,100523.91
2023-04-15T20:06:59.638Z,100493.94
2023-04-15T20:09:27.488Z,100512.34
2023-04-15T20:12:47.477Z,100526.63
2023-04-15T20:14:42.932Z,100534.56
2023-04-15T20:17:10.997Z,100537.31
2023-04-15T20:19:39.254Z,100529.63
2023-04-15T20:22:07.181Z,100525.28
2023-04-15T20:24:34.938Z,100510.72
2023-04-15T20:27:03.969Z,100479.69
2023-04-15T20:29:33.082Z,100512.66
2023-04-15T20:32:01.210Z,100498.75
2023-04-15T20:34:29.417Z,100536.59
2023-04-15T20:36:57.409Z,100557.41
2023-04-15T20:39:25.471Z,100549.84
2023-04-15T20:41:53.314Z,100576.22
2023-04-15T20:44:21.506Z,100578.41
2023-04-15T20:46:50.638Z,100565.53
2023-04-15T20:49:18.566Z,100561.03
2023-04-15T20:51:46.625Z,100602.94
2023-04-15T20:54:15.113Z,100563.53
2023-04-15T20:56:42.970Z,100604.56
2023-04-15T20:59:10.987Z,100613.53
2023-04-15T21:01:40.327Z,100567.88
2023-04-15T21:04:08.363Z,100554.41
2023-04-15T21:06:36.344Z,100599.91
2023-04-15T21:09:04.358Z,100595.94
2023-04-15T21:11:53.183Z,100611.34
2023-04-15T21:14:20.669Z,100594.19
2023-04-15T21:16:48.889Z,100609.16
2023-04-15T21:19:17.610Z,100629.69
2023-04-15T21:21:48.445Z,100592.69
2023-04-15T21:24:16.336Z,100640.59
2023-04-15T21:26:44.110Z,100611.94
2023-04-15T21:29:12.173Z,100621.97
2023-04-15T21:31:40.518Z,100608.69
2023-04-15T21:34:08.713Z,100602.28
2023-04-15T21:36:38.209Z,100637.19
2023-04-15T21:39:06.316Z,100636.75
2023-04-15T21:41:34.441Z,100642.91
2023-04-15T21:44:02.215Z,100622.97
2023-04-15T21:46:32.844Z,100629.22
2023-04-15T21:49:07.299Z,100634.09
2023-04-15T21:51:35.362Z,100656.63
2023-04-15T21:54:03.186Z,100565.00
2023-04-15T21:56:31.063Z,100597.66
2023-04-15T21:58:58.845Z,100654.94
2023-04-15T22:01:27.454Z,100637.69
2023-04-15T22:03:56.473Z,100623.84
2023-04-15T22:06:24.291Z,100661.19
2023-04-15T22:08:56.902Z,100614.63
2023-04-15T22:11:30.488Z,100651.03
2023-04-15T22:13:59.370Z,100667.63
2023-04-15T22:16:27.835Z,100642.13
2023-04-15T22:18:56.458Z,100666.75
2023-04-15T22:21:24.112Z,100588.28
2023-04-15T22:23:53.441Z,100662.09
2023-04-15T22:26:41.267Z,100644.56
2023-04-15T22:29:09.172Z,100610.84
2023-04-15T22:31:36.932Z,100623.84
2023-04-15T22:34:05.047Z,100655.97
2023-04-15T22:36:32.709Z,100633.78
2023-04-15T22:39:01.693Z,100588.41
2023-04-15T22:41:29.578Z,100670.94
2023-04-15T22:43:57.490Z,100635.06
2023-04-15T22:46:25.437Z,100636.59
2023-04-15T22:48:54.372Z,100618.25
2023-04-15T22:51:23.474Z,100625.25
2023-04-15T22:53:51.262Z,100688.38
2023-04-15T22:56:23.033Z,100684.56
2023-04-15T22:58:51.335Z,100680.72
2023-04-15T23:01:19.346Z,100632.59
2023-04-15T23:03:57.178Z,100662.38
2023-04-15T23:06:33.669Z,100654.84
2023-04-15T23:09:01.566Z,100611.53
2023-04-15T23:11:29.449Z,100663.50
2023-04-15T23:13:57.203Z,100670.00
2023-04-15T23:16:25.030Z,100661.13
2023-04-15T23:18:52.752Z,100615.13
2023-04-15T23:21:26.049Z,100658.44
2023-04-15T23:23:54.529Z,100639.16
2023-04-15T23:26:22.238Z,100662.72
2023-04-15T23:28:50.235Z,100598.38
2023-04-15T23:31:18.070Z,100654.59
2023-04-15T23:33:45.826Z,100647.41
2023-04-15T23:36:13.695Z,100691.81
2023-04-15T23:38:42.235Z,100689.88
2023-04-15T23:41:12.139Z,100694.53
2023-04-15T23:43:40.021Z,100692.09
2023-04-15T23:46:08.785Z,100650.72
2023-04-15T23:48:36.611Z,100644.41
2023-04-15T23:51:05.227Z,100628.75
2023-04-15T23:53:32.957Z,100677.50
2023-04-15T23:56:00.565Z,100632.63
2023-04-15T23:58:28.350Z,100667.22
